Time;durP1;ratioP1;P1;durP2;ratioP2;P2;SDS_P1;SDS_P2;PMS_P1;PMS_P2;Temp;Humidity;BMP_temperature;BMP_pressure;BME280_temperature;BME280_humidity;BME280_pressure;Samples;Min_cycle;Max_cycle;Signal;HPM_P1;HPM_P2
2022/03/25 00:01:29;;;;;;;132.45;51.03;;;5.00;99.90;;;;;;5103314;27;20062;-84
2022/03/25 00:03:56;;;;;;;133.73;51.75;;;4.80;99.90;;;;;;5103284;27;20035;-85
2022/03/25 00:06:23;;;;;;;136.57;52.15;;;4.80;99.90;;;;;;5120082;27;20039;-85
2022/03/25 00:08:49;;;;;;;133.93;51.90;;;4.80;99.90;;;;;;5136827;27;20095;-85
2022/03/25 00:11:14;;;;;;;135.23;51.10;;;4.70;99.90;;;;;;5119650;27;20050;-85
2022/03/25 00:13:40;;;;;;;144.55;53.67;;;4.70;99.90;;;;;;5136560;27;20040;-85
2022/03/25 00:16:06;;;;;;;143.13;53.25;;;4.70;99.90;;;;;;5102182;27;20043;-84
2022/03/25 00:18:33;;;;;;;138.85;53.28;;;4.60;99.90;;;;;;5119096;27;20035;-85
2022/03/25 00:20:59;;;;;;;140.18;53.80;;;4.60;99.90;;;;;;5119051;27;20039;-85
2022/03/25 00:23:25;;;;;;;141.60;54.13;;;4.60;99.90;;;;;;5119028;27;20031;-85
2022/03/25 00:25:57;;;;;;;141.82;53.72;;;4.60;99.90;;;;;;5119462;27;20039;-85
2022/03/25 00:28:22;;;;;;;138.68;53.60;;;4.60;99.90;;;;;;5136172;27;20039;-85
2022/03/25 00:30:49;;;;;;;137.63;50.53;;;4.60;99.90;;;;;;5101841;27;20043;-85
2022/03/25 00:33:16;;;;;;;138.30;51.33;;;4.60;99.90;;;;;;5101749;27;20039;-85
2022/03/25 00:35:42;;;;;;;136.25;52.75;;;4.60;99.90;;;;;;5118993;27;20520;-84
2022/03/25 00:38:08;;;;;;;139.55;53.83;;;4.60;99.90;;;;;;5118650;27;20066;-85
2022/03/25 00:40:34;;;;;;;134.50;51.25;;;4.60;99.90;;;;;;5118627;27;20079;-85
2022/03/25 00:43:01;;;;;;;138.35;53.40;;;4.70;99.90;;;;;;5118511;27;20081;-85
2022/03/25 00:45:29;;;;;;;131.60;53.40;;;4.60;99.90;;;;;;5118418;27;20051;-85
2022/03/25 00:47:55;;;;;;;142.68;53.05;;;4.60;99.90;;;;;;5118493;27;20043;-85
2022/03/25 00:50:21;;;;;;;139.25;53.78;;;4.70;99.90;;;;;;5118477;27;20126;-85
2022/03/25 00:52:47;;;;;;;131.40;51.22;;;4.70;99.90;;;;;;5118661;27;20082;-85
2022/03/25 00:55:13;;;;;;;127.70;49.45;;;4.70;99.90;;;;;;5135507;27;20083;-85
2022/03/25 00:57:38;;;;;;;133.15;52.15;;;4.70;99.90;;;;;;5135563;27;20457;-85
2022/03/25 01:00:05;;;;;;;123.75;50.40;;;4.70;99.90;;;;;;5101299;27;20398;-85
2022/03/25 01:02:30;;;;;;;130.30;49.83;;;4.60;99.90;;;;;;5118688;27;20442;-85
2022/03/25 01:04:56;;;;;;;127.28;50.95;;;4.60;99.90;;;;;;5135788;27;20039;-85
2022/03/25 01:07:22;;;;;;;130.98;50.63;;;4.50;99.90;;;;;;5135504;27;20039;-85
2022/03/25 01:09:47;;;;;;;129.05;49.35;;;4.40;99.90;;;;;;5101039;27;20042;-85
2022/03/25 01:12:13;;;;;;;122.22;48.97;;;4.40;99.90;;;;;;5135258;27;20039;-85
2022/03/25 01:14:39;;;;;;;122.68;48.97;;;4.40;99.90;;;;;;5135123;27;20188;-85
2022/03/25 01:17:05;;;;;;;123.82;48.58;;;4.40;99.90;;;;;;5117891;27;20378;-85
2022/03/25 01:19:30;;;;;;;132.20;50.17;;;4.30;99.90;;;;;;5135332;27;20039;-85
2022/03/25 01:21:56;;;;;;;129.23;49.50;;;4.20;99.90;;;;;;5135496;27;20082;-85
2022/03/25 01:24:23;;;;;;;123.75;50.00;;;4.20;99.90;;;;;;5134941;27;20035;-85
2022/03/25 01:26:48;;;;;;;130.32;50.05;;;4.10;99.90;;;;;;5100610;27;20129;-85
2022/03/25 01:29:14;;;;;;;129.68;49.90;;;4.10;99.90;;;;;;5100879;27;20085;-85
2022/03/25 01:31:40;;;;;;;123.18;48.42;;;4.10;99.90;;;;;;5134958;27;20035;-85
2022/03/25 01:34:06;;;;;;;126.68;48.88;;;4.10;99.90;;;;;;5117565;27;20095;-85
2022/03/25 01:36:32;;;;;;;132.30;51.33;;;4.30;99.90;;;;;;5117614;27;20049;-85
2022/03/25 01:38:58;;;;;;;139.45;53.20;;;4.00;99.90;;;;;;5117498;27;20050;-85
2022/03/25 01:41:24;;;;;;;139.68;52.85;;;4.00;99.90;;;;;;5117472;27;20454;-85
2022/03/25 01:43:59;;;;;;;127.72;49.83;;;4.00;99.90;;;;;;5117424;27;20084;-85
2022/03/25 01:46:26;;;;;;;131.98;51.00;;;4.10;99.90;;;;;;5117316;27;20117;-85
2022/03/25 01:48:52;;;;;;;124.55;49.67;;;4.00;99.90;;;;;;5100653;27;20561;-85
2022/03/25 01:51:30;;;;;;;129.43;49.17;;;4.20;99.90;;;;;;5117762;27;20377;-85
2022/03/25 01:54:30;;;;;;;121.00;48.13;;;4.00;99.90;;;;;;5116881;27;20095;-85
2022/03/25 01:57:00;;;;;;;133.68;49.95;;;3.90;99.90;;;;;;5116350;27;20489;-85
2022/03/25 01:59:27;;;;;;;135.20;49.92;;;3.80;99.90;;;;;;5117420;27;20043;-85
2022/03/25 02:01:54;;;;;;;138.45;52.80;;;4.20;99.90;;;;;;5117327;27;20066;-85
2022/03/25 02:04:20;;;;;;;149.77;54.63;;;3.70;99.90;;;;;;5117572;27;20147;-85
2022/03/25 02:06:46;;;;;;;137.00;51.40;;;3.70;99.90;;;;;;5100180;27;20494;-85
2022/03/25 02:09:12;;;;;;;143.85;53.70;;;3.70;99.90;;;;;;5116824;27;20126;-85
2022/03/25 02:11:38;;;;;;;140.27;52.55;;;3.70;99.90;;;;;;5100193;27;20046;-85
2022/03/25 02:14:04;;;;;;;152.50;55.63;;;3.70;99.90;;;;;;5099708;27;20039;-85
2022/03/25 02:16:37;;;;;;;147.32;53.95;;;3.70;99.90;;;;;;5116797;27;20126;-85
2022/03/25 02:19:03;;;;;;;136.80;52.38;;;3.70;99.90;;;;;;5117534;27;20545;-85
2022/03/25 02:21:33;;;;;;;147.35;52.28;;;3.70;99.90;;;;;;5116803;27;20042;-85
2022/03/25 02:24:00;;;;;;;130.48;51.40;;;3.70;99.90;;;;;;5116785;27;20058;-85
2022/03/25 02:26:27;;;;;;;132.80;51.75;;;3.70;99.90;;;;;;5099730;27;20042;-85
2022/03/25 02:28:54;;;;;;;130.80;50.05;;;3.90;99.90;;;;;;5117205;27;20192;-85
2022/03/25 02:31:20;;;;;;;129.20;50.10;;;3.70;99.90;;;;;;5116571;28;20035;-85
2022/03/25 02:33:46;;;;;;;144.23;50.92;;;3.60;99.90;;;;;;5116811;27;20405;-85
2022/03/25 02:36:12;;;;;;;152.25;52.80;;;4.10;99.90;;;;;;5116406;27;20047;-85
2022/03/25 02:38:37;;;;;;;135.68;50.97;;;3.60;99.90;;;;;;5099366;27;20126;-85
2022/03/25 02:41:03;;;;;;;132.63;50.97;;;3.60;99.90;;;;;;5134031;27;20092;-85
2022/03/25 02:43:29;;;;;;;141.98;50.50;;;3.50;99.90;;;;;;5116409;27;20051;-85
2022/03/25 02:45:55;;;;;;;133.70;50.42;;;3.50;99.90;;;;;;5116635;27;20077;-84
2022/03/25 02:48:21;;;;;;;135.18;49.95;;;3.50;99.90;;;;;;5133726;27;20043;-85
2022/03/25 02:50:47;;;;;;;143.80;51.55;;;3.50;99.90;;;;;;5116631;27;20074;-85
2022/03/25 02:53:13;;;;;;;139.05;51.30;;;4.00;99.90;;;;;;5116598;28;20476;-85
2022/03/25 02:55:40;;;;;;;153.77;53.10;;;3.30;99.90;;;;;;5099325;28;20100;-85
2022/03/25 02:58:06;;;;;;;150.18;53.03;;;3.40;99.90;;;;;;5116324;28;20071;-84
2022/03/25 03:00:32;;;;;;;171.13;55.47;;;3.30;99.90;;;;;;5099385;28;20082;-85
2022/03/25 03:03:00;;;;;;;164.07;56.08;;;3.30;99.90;;;;;;5116199;28;20043;-85
2022/03/25 03:05:27;;;;;;;174.88;58.65;;;3.30;99.90;;;;;;5116349;28;20050;-85
2022/03/25 03:07:53;;;;;;;171.05;58.22;;;3.40;99.90;;;;;;5103214;27;20050;-85
2022/03/25 03:10:18;;;;;;;174.93;58.53;;;3.40;99.90;;;;;;5120747;27;20381;-85
2022/03/25 03:12:44;;;;;;;167.60;56.85;;;3.40;99.90;;;;;;5104133;27;20035;-85
2022/03/25 03:15:12;;;;;;;162.35;54.90;;;3.40;99.90;;;;;;5102995;27;20051;-85
2022/03/25 03:17:38;;;;;;;163.75;54.72;;;3.50;99.90;;;;;;5120550;27;20087;-85
2022/03/25 03:20:05;;;;;;;171.80;55.72;;;3.50;99.90;;;;;;5103598;27;20376;-85
2022/03/25 03:22:30;;;;;;;150.35;52.50;;;3.50;99.90;;;;;;5103307;27;20435;-85
2022/03/25 03:24:59;;;;;;;155.10;51.88;;;3.40;99.90;;;;;;5137491;27;20047;-85
2022/03/25 03:27:25;;;;;;;151.75;51.45;;;3.40;99.90;;;;;;5120022;27;20107;-85
2022/03/25 03:29:51;;;;;;;143.68;51.67;;;3.40;99.90;;;;;;5103544;27;20046;-85
2022/03/25 03:32:18;;;;;;;157.02;51.92;;;3.40;99.90;;;;;;5120222;27;20092;-85
2022/03/25 03:34:44;;;;;;;131.70;48.58;;;3.40;99.90;;;;;;5119701;27;20086;-85
2022/03/25 03:37:10;;;;;;;151.00;48.45;;;3.40;99.90;;;;;;5119983;27;20075;-85
2022/03/25 03:39:35;;;;;;;135.55;47.50;;;3.40;99.90;;;;;;5137322;27;20129;-85
2022/03/25 03:42:03;;;;;;;135.88;48.30;;;3.40;99.90;;;;;;5137075;27;20122;-85
2022/03/25 03:44:29;;;;;;;140.98;48.53;;;3.40;99.90;;;;;;5102940;27;20469;-85
2022/03/25 03:46:55;;;;;;;125.57;46.85;;;3.30;99.90;;;;;;5103071;27;20039;-85
2022/03/25 03:49:21;;;;;;;107.70;44.22;;;3.30;99.90;;;;;;5119526;27;20073;-85
2022/03/25 03:51:47;;;;;;;121.18;45.38;;;3.20;99.90;;;;;;5119508;27;20431;-85
2022/03/25 03:54:12;;;;;;;117.05;43.33;;;3.20;99.90;;;;;;5136680;27;20043;-84
2022/03/25 03:56:38;;;;;;;189.32;45.72;;;3.10;99.90;;;;;;5136776;27;20477;-85
2022/03/25 03:59:04;;;;;;;98.85;38.22;;;3.00;99.90;;;;;;5119496;27;20070;-85
2022/03/25 04:01:29;;;;;;;92.07;38.97;;;3.00;99.90;;;;;;5119554;27;20047;-85
2022/03/25 04:03:55;;;;;;;97.93;39.13;;;2.90;99.90;;;;;;5119411;27;20043;-85
2022/03/25 04:06:22;;;;;;;89.45;37.80;;;2.90;99.90;;;;;;5119472;27;20050;-85
2022/03/25 04:08:48;;;;;;;90.50;37.65;;;3.00;99.90;;;;;;5119224;27;20493;-85
2022/03/25 04:11:15;;;;;;;86.93;37.00;;;2.80;99.90;;;;;;5119833;27;20104;-85
2022/03/25 04:13:41;;;;;;;92.00;38.72;;;2.80;99.90;;;;;;5119364;27;20110;-85
2022/03/25 04:16:07;;;;;;;94.25;38.20;;;2.70;99.90;;;;;;5102108;27;20147;-85
2022/03/25 04:18:33;;;;;;;94.55;38.92;;;2.70;99.90;;;;;;5118258;27;20116;-85
2022/03/25 04:20:59;;;;;;;98.22;39.78;;;2.70;99.90;;;;;;5102371;27;20463;-85
2022/03/25 04:23:24;;;;;;;106.95;41.42;;;2.70;99.90;;;;;;5103093;27;20043;-85
2022/03/25 04:25:51;;;;;;;104.85;40.03;;;2.70;99.90;;;;;;5137600;27;20581;-84
2022/03/25 04:28:18;;;;;;;113.70;41.40;;;2.70;99.90;;;;;;5119706;27;20405;-85
2022/03/25 04:30:43;;;;;;;106.20;40.50;;;2.70;99.90;;;;;;5102131;27;20035;-85
2022/03/25 04:33:09;;;;;;;103.13;40.45;;;2.70;99.90;;;;;;5136374;27;20031;-85
2022/03/25 04:35:35;;;;;;;100.95;39.03;;;2.70;99.90;;;;;;5118886;27;20083;-84
2022/03/25 04:38:01;;;;;;;93.32;37.20;;;2.70;99.90;;;;;;5101890;27;20039;-85
2022/03/25 04:40:29;;;;;;;92.05;37.22;;;2.70;99.90;;;;;;5102153;27;20054;-85
2022/03/25 04:42:56;;;;;;;92.60;37.20;;;2.60;99.90;;;;;;5102705;27;20051;-85
2022/03/25 04:45:24;;;;;;;104.15;38.95;;;2.60;99.90;;;;;;5102614;27;20499;-85
2022/03/25 04:47:50;;;;;;;104.05;38.40;;;2.60;99.90;;;;;;5121050;27;20043;-85
2022/03/25 04:50:17;;;;;;;100.07;37.17;;;2.60;99.90;;;;;;5101891;27;20484;-85
2022/03/25 04:52:43;;;;;;;117.38;39.47;;;2.60;99.90;;;;;;5101993;27;20469;-85
2022/03/25 04:55:11;;;;;;;115.28;37.80;;;2.60;99.90;;;;;;5101985;27;20054;-85
2022/03/25 04:57:41;;;;;;;100.70;37.90;;;2.60;99.90;;;;;;5119050;27;20118;-85
2022/03/25 05:00:08;;;;;;;112.85;38.83;;;2.60;99.90;;;;;;5102115;27;20055;-85
2022/03/25 05:02:34;;;;;;;97.85;38.40;;;2.60;99.90;;;;;;5118438;27;20043;-85
2022/03/25 05:05:00;;;;;;;115.38;40.00;;;2.60;99.90;;;;;;5118226;27;20042;-85
2022/03/25 05:07:26;;;;;;;113.20;38.97;;;2.50;99.90;;;;;;5118616;27;20104;-85
2022/03/25 05:09:52;;;;;;;104.47;39.40;;;2.60;99.90;;;;;;5135686;27;20039;-85
2022/03/25 05:12:18;;;;;;;106.85;38.72;;;2.50;99.90;;;;;;5118701;27;20039;-85
2022/03/25 05:14:44;;;;;;;102.20;36.88;;;2.50;99.90;;;;;;5118037;27;20130;-85
2022/03/25 05:17:09;;;;;;;109.05;37.42;;;2.50;99.90;;;;;;5101562;27;20205;-85
2022/03/25 05:19:35;;;;;;;110.82;38.50;;;2.50;99.90;;;;;;5101943;27;20047;-85
2022/03/25 05:22:01;;;;;;;123.57;39.10;;;2.50;99.90;;;;;;5136487;27;20054;-85
2022/03/25 05:24:27;;;;;;;120.07;38.85;;;2.50;99.90;;;;;;5101869;27;20385;-84
2022/03/25 05:26:53;;;;;;;127.05;43.38;;;2.90;99.90;;;;;;5118757;27;20051;-85
2022/03/25 05:29:20;;;;;;;132.70;43.17;;;2.60;99.90;;;;;;5118730;27;20390;-85
2022/03/25 05:31:46;;;;;;;137.07;44.15;;;2.60;99.90;;;;;;5118548;27;20039;-85
2022/03/25 05:34:12;;;;;;;146.60;45.15;;;2.70;99.90;;;;;;5135594;27;20489;-85
2022/03/25 05:36:39;;;;;;;162.73;46.88;;;2.70;99.90;;;;;;5101046;27;20112;-85
2022/03/25 05:39:05;;;;;;;149.10;47.47;;;2.70;99.90;;;;;;5117909;27;20047;-85
2022/03/25 05:41:31;;;;;;;164.18;47.47;;;2.70;99.90;;;;;;5100635;27;20144;-85
2022/03/25 05:43:57;;;;;;;138.10;43.92;;;2.70;99.90;;;;;;5104928;27;20023;-85
2022/03/25 05:46:23;;;;;;;133.35;43.05;;;2.70;99.90;;;;;;5135168;27;20043;-86
2022/03/25 05:48:49;;;;;;;120.20;40.70;;;2.70;99.90;;;;;;5100816;27;20061;-85
2022/03/25 05:51:14;;;;;;;133.30;43.22;;;3.30;99.90;;;;;;5100410;27;20047;-86
2022/03/25 05:53:41;;;;;;;125.70;42.15;;;2.70;99.90;;;;;;5117854;27;20065;-86
2022/03/25 05:56:08;;;;;;;120.38;41.75;;;2.70;99.90;;;;;;5100368;27;20513;-86
2022/03/25 05:58:34;;;;;;;120.45;41.42;;;2.70;99.90;;;;;;5117361;27;20032;-86
2022/03/25 06:01:01;;;;;;;115.80;40.22;;;2.70;99.90;;;;;;5100381;27;20129;-86
2022/03/25 06:03:27;;;;;;;122.88;41.95;;;2.80;99.90;;;;;;5100010;27;20039;-86
2022/03/25 06:05:53;;;;;;;112.65;41.30;;;2.80;99.90;;;;;;5138436;27;20050;-86
2022/03/25 06:08:18;;;;;;;121.63;41.40;;;2.80;99.90;;;;;;5108032;27;20039;-86
2022/03/25 06:10:44;;;;;;;128.10;42.70;;;2.80;99.90;;;;;;5137054;27;20449;-86
2022/03/25 06:13:09;;;;;;;122.55;42.50;;;2.90;99.90;;;;;;5119327;27;20039;-86
2022/03/25 06:15:35;;;;;;;123.15;41.28;;;2.90;99.90;;;;;;5136273;27;20047;-86
2022/03/25 06:18:01;;;;;;;116.63;39.67;;;2.90;99.90;;;;;;5136369;27;20481;-86
2022/03/25 06:20:29;;;;;;;126.75;40.30;;;3.20;99.90;;;;;;5136788;27;20050;-86
2022/03/25 06:22:56;;;;;;;111.80;38.72;;;3.00;99.90;;;;;;5119369;27;20082;-86
2022/03/25 06:25:22;;;;;;;102.80;38.65;;;3.00;99.90;;;;;;5118644;27;20043;-86
2022/03/25 06:27:56;;;;;;;115.70;40.53;;;3.00;99.90;;;;;;5101387;28;20061;-86
2022/03/25 06:30:26;;;;;;;116.63;41.70;;;3.00;99.90;;;;;;5117227;27;20485;-86
2022/03/25 06:32:52;;;;;;;117.80;41.55;;;3.10;99.90;;;;;;5117059;27;20359;-86
2022/03/25 06:35:18;;;;;;;122.10;42.17;;;3.10;99.90;;;;;;5133665;27;20175;-86
2022/03/25 06:37:44;;;;;;;126.28;42.78;;;3.20;99.90;;;;;;5101206;27;20046;-86
2022/03/25 06:40:11;;;;;;;134.00;44.17;;;3.30;99.90;;;;;;5100962;27;20039;-85
2022/03/25 06:42:42;;;;;;;129.13;41.22;;;3.40;99.90;;;;;;5099368;27;20047;-86
2022/03/25 06:45:10;;;;;;;124.05;42.85;;;3.50;99.90;;;;;;5116932;27;20034;-86
2022/03/25 06:47:37;;;;;;;129.13;44.90;;;3.60;99.90;;;;;;5099600;27;20039;-86
2022/03/25 06:50:07;;;;;;;129.50;44.63;;;3.70;99.90;;;;;;5116347;28;20070;-86
2022/03/25 06:52:33;;;;;;;119.22;43.28;;;3.80;99.90;;;;;;5116317;28;20515;-86
2022/03/25 06:55:00;;;;;;;114.95;41.08;;;3.80;99.90;;;;;;5099345;28;20088;-85
2022/03/25 06:57:26;;;;;;;107.22;40.10;;;4.00;99.90;;;;;;5133927;28;20082;-86
2022/03/25 06:59:52;;;;;;;109.30;40.30;;;4.00;99.90;;;;;;5116557;28;20512;-86
2022/03/25 07:02:18;;;;;;;102.40;36.28;;;4.20;99.90;;;;;;5116388;28;20569;-86
2022/03/25 07:04:44;;;;;;;96.05;37.15;;;4.30;99.90;;;;;;5133313;28;20043;-86
2022/03/25 07:07:11;;;;;;;87.35;35.38;;;4.40;99.90;;;;;;5116587;28;20054;-86
2022/03/25 07:09:37;;;;;;;77.90;32.25;;;4.50;99.90;;;;;;5100114;28;20126;-86
2022/03/25 07:12:03;;;;;;;76.53;31.83;;;4.60;99.90;;;;;;5135835;28;20469;-85
2022/03/25 07:14:29;;;;;;;72.85;31.65;;;4.70;99.90;;;;;;5132700;28;20074;-86
2022/03/25 07:16:55;;;;;;;74.25;31.85;;;4.90;99.90;;;;;;5099470;28;20047;-86
2022/03/25 07:19:25;;;;;;;68.07;29.92;;;5.00;99.90;;;;;;5118345;28;20043;-86
2022/03/25 07:21:51;;;;;;;71.85;30.67;;;5.10;99.90;;;;;;5116355;28;20055;-86
2022/03/25 07:24:17;;;;;;;69.78;30.83;;;5.20;99.90;;;;;;5099528;28;20074;-86
2022/03/25 07:26:43;;;;;;;67.25;30.55;;;5.30;99.90;;;;;;5099551;28;20056;-86
2022/03/25 07:29:09;;;;;;;62.78;29.08;;;5.40;99.90;;;;;;5099370;28;20042;-86
2022/03/25 07:31:34;;;;;;;61.97;28.55;;;6.30;99.90;;;;;;5116103;28;20257;-86
2022/03/25 07:34:00;;;;;;;64.90;29.25;;;5.60;99.90;;;;;;5099032;28;20047;-86
2022/03/25 07:36:26;;;;;;;59.33;27.75;;;5.70;99.90;;;;;;5115888;28;20096;-86
2022/03/25 07:38:52;;;;;;;56.90;26.25;;;5.80;99.90;;;;;;5099378;28;20384;-86
2022/03/25 07:41:19;;;;;;;50.55;24.38;;;5.90;99.90;;;;;;5098861;28;20434;-86
2022/03/25 07:43:45;;;;;;;49.47;24.10;;;5.90;99.90;;;;;;5098823;28;20474;-86
2022/03/25 07:46:11;;;;;;;54.17;24.02;;;6.20;99.90;;;;;;5116076;28;20043;-86
2022/03/25 07:48:37;;;;;;;49.58;23.52;;;6.50;99.90;;;;;;5115567;28;20447;-86
2022/03/25 07:51:03;;;;;;;47.17;23.38;;;6.30;99.90;;;;;;5116202;28;20039;-86
2022/03/25 07:53:29;;;;;;;48.33;23.52;;;7.10;99.90;;;;;;5116952;27;20039;-83
2022/03/25 07:55:55;;;;;;;45.50;23.75;;;6.50;99.90;;;;;;5119405;27;20046;-84
2022/03/25 07:58:22;;;;;;;48.30;24.92;;;6.60;99.90;;;;;;5102580;27;20039;-83
2022/03/25 08:00:48;;;;;;;51.58;23.77;;;6.70;99.90;;;;;;5102555;27;20393;-84
2022/03/25 08:03:16;;;;;;;50.35;25.40;;;7.10;99.90;;;;;;5119566;27;20039;-83
2022/03/25 08:05:47;;;;;;;48.53;24.38;;;7.00;99.90;;;;;;5119129;27;20043;-84
2022/03/25 08:08:13;;;;;;;50.17;23.08;;;7.10;99.90;;;;;;5119367;27;20084;-83
2022/03/25 08:10:39;;;;;;;48.58;23.58;;;7.30;99.90;;;;;;5102461;27;20043;-84
2022/03/25 08:13:05;;;;;;;47.50;23.60;;;7.40;99.90;;;;;;5119419;27;20039;-83
2022/03/25 08:15:32;;;;;;;46.78;23.80;;;7.50;99.90;;;;;;5118769;27;20055;-83
2022/03/25 08:18:00;;;;;;;47.30;22.60;;;7.60;99.90;;;;;;5119349;27;20397;-84
2022/03/25 08:20:39;;;;;;;40.03;20.38;;;7.70;99.90;;;;;;5101976;27;20047;-83
2022/03/25 08:23:07;;;;;;;43.90;20.73;;;7.80;99.90;;;;;;5119339;27;20039;-84
2022/03/25 08:28:19;;;;;;;40.83;20.80;;;8.10;99.90;;;;;;5118781;27;20043;-84
2022/03/25 08:30:46;;;;;;;42.97;19.85;;;8.20;99.90;;;;;;5119168;27;20388;-83
2022/03/25 08:33:13;;;;;;;38.33;20.40;;;8.40;99.90;;;;;;5118683;27;20042;-83
2022/03/25 08:35:40;;;;;;;38.13;20.42;;;8.50;99.90;;;;;;5101520;27;20043;-84
2022/03/25 08:38:07;;;;;;;38.05;19.27;;;9.00;99.90;;;;;;5101807;27;20066;-84
2022/03/25 08:40:35;;;;;;;37.38;19.42;;;8.80;99.90;;;;;;5118660;27;20058;-84
2022/03/25 08:43:01;;;;;;;45.90;20.08;;;9.40;99.90;;;;;;5118688;27;20046;-84
2022/03/25 08:45:28;;;;;;;39.58;20.35;;;9.20;99.90;;;;;;5118712;27;20079;-84
2022/03/25 08:47:54;;;;;;;39.22;19.98;;;9.40;99.90;;;;;;5118450;27;20051;-84
2022/03/25 08:50:22;;;;;;;40.17;19.85;;;9.30;99.90;;;;;;5118764;27;20050;-84
2022/03/25 08:52:48;;;;;;;40.38;20.17;;;9.40;99.90;;;;;;5101413;27;20039;-84
2022/03/25 08:55:16;;;;;;;40.15;19.75;;;9.60;99.90;;;;;;5118193;27;20122;-84
2022/03/25 08:57:42;;;;;;;38.10;19.52;;;9.80;99.90;;;;;;5101559;27;20039;-84
2022/03/25 09:00:13;;;;;;;37.47;19.75;;;10.10;99.90;;;;;;5118302;27;20047;-84
2022/03/25 09:02:40;;;;;;;36.63;19.20;;;10.00;99.90;;;;;;5118389;27;20047;-84
2022/03/25 09:05:07;;;;;;;34.08;18.35;;;10.10;99.90;;;;;;5117938;27;20393;-83
2022/03/25 09:07:34;;;;;;;37.05;19.40;;;10.30;99.90;;;;;;5101195;27;20481;-84
2022/03/25 09:10:00;;;;;;;33.45;18.50;;;10.30;99.90;;;;;;5118036;27;20144;-84
2022/03/25 09:12:26;;;;;;;34.72;17.90;;;10.60;99.90;;;;;;5118376;27;20067;-83
2022/03/25 09:14:51;;;;;;;34.85;17.52;;;10.80;99.90;;;;;;5117867;27;20549;-83
2022/03/25 09:17:17;;;;;;;33.67;17.05;;;10.80;99.90;;;;;;5100716;27;20047;-83
2022/03/25 09:19:43;;;;;;;33.40;17.95;;;11.10;99.90;;;;;;5135376;27;20430;-83
2022/03/25 09:22:10;;;;;;;31.70;16.98;;;11.00;99.90;;;;;;5117776;27;20043;-84
2022/03/25 09:24:36;;;;;;;32.45;16.70;;;11.40;99.90;;;;;;5117619;27;20035;-83
2022/03/25 09:27:02;;;;;;;32.15;16.30;;;11.20;99.90;;;;;;5134942;27;20118;-83
2022/03/25 09:29:28;;;;;;;31.10;16.42;;;11.30;99.90;;;;;;5100902;27;20042;-84
2022/03/25 09:31:54;;;;;;;33.88;15.13;;;11.40;99.90;;;;;;5100976;27;20035;-83
2022/03/25 09:37:04;;;;;;;29.35;15.07;;;11.60;99.90;;;;;;5117593;27;20051;-83
2022/03/25 09:39:29;;;;;;;28.77;13.35;;;11.70;99.90;;;;;;5100678;27;20051;-83
2022/03/25 09:41:57;;;;;;;28.02;13.75;;;12.40;99.90;;;;;;5118357;27;20061;-84
2022/03/25 09:44:23;;;;;;;32.33;15.10;;;12.20;99.90;;;;;;5117240;27;20051;-83
2022/03/25 09:46:50;;;;;;;26.10;14.82;;;12.30;99.90;;;;;;5134340;27;20062;-83
2022/03/25 09:49:18;;;;;;;26.20;13.40;;;12.10;99.90;;;;;;5117330;27;20050;-83
2022/03/25 09:51:44;;;;;;;29.25;15.27;;;12.20;99.90;;;;;;5117571;27;20043;-83
2022/03/25 09:54:13;;;;;;;26.40;14.27;;;12.30;99.90;;;;;;5117211;27;20075;-83
2022/03/25 09:56:40;;;;;;;30.20;16.02;;;12.40;99.90;;;;;;5116961;27;20042;-84
2022/03/25 09:59:06;;;;;;;31.05;15.25;;;12.50;99.90;;;;;;5135908;27;20039;-83
2022/03/25 10:01:33;;;;;;;28.65;14.85;;;12.60;99.90;;;;;;5117646;27;20043;-83
2022/03/25 10:03:58;;;;;;;24.80;13.43;;;12.80;99.90;;;;;;5118124;27;20122;-82
2022/03/25 10:06:24;;;;;;;21.90;11.27;;;13.10;99.90;;;;;;5104063;27;20144;-82
2022/03/25 10:08:58;;;;;;;25.60;13.48;;;13.20;99.90;;;;;;5102562;27;20129;-82
2022/03/25 10:11:31;;;;;;;26.70;13.65;;;13.30;99.90;;;;;;5103632;27;20061;-82
2022/03/25 10:14:23;;;;;;;22.83;11.98;;;13.70;99.90;;;;;;5120048;27;20046;-83
2022/03/25 10:16:50;;;;;;;24.83;12.68;;;13.60;99.90;;;;;;5125722;22;20047;-82
2022/03/25 10:19:18;;;;;;;23.17;12.45;;;13.70;99.90;;;;;;5103973;27;20103;-82
2022/03/25 10:21:59;;;;;;;25.63;13.57;;;13.80;99.90;;;;;;5063106;22;20148;-82
2022/03/25 10:24:48;;;;;;;27.45;14.52;;;14.00;99.90;;;;;;5075374;28;20052;-83
2022/03/25 10:27:19;;;;;;;26.02;13.43;;;14.10;99.90;;;;;;5055193;22;20076;-82
2022/03/25 10:29:47;;;;;;;26.17;13.35;;;14.20;99.90;;;;;;5100529;27;20107;-82
2022/03/25 10:32:15;;;;;;;22.98;13.18;;;14.10;99.90;;;;;;5102020;27;20054;-83
2022/03/25 10:34:42;;;;;;;23.58;12.85;;;14.30;99.90;;;;;;5116852;27;20050;-83
2022/03/25 10:37:14;;;;;;;21.15;12.60;;;14.40;99.90;;;;;;5101071;27;20046;-83
2022/03/25 10:39:51;;;;;;;24.83;12.75;;;14.40;99.90;;;;;;5100217;27;20047;-83
2022/03/25 10:42:18;;;;;;;27.13;13.60;;;14.50;99.90;;;;;;5083114;27;20038;-83
2022/03/25 10:44:43;;;;;;;20.65;12.57;;;14.70;99.90;;;;;;5117111;27;20490;-83
2022/03/25 10:47:15;;;;;;;23.50;13.07;;;14.70;99.90;;;;;;5116794;27;20078;-83
2022/03/25 10:49:46;;;;;;;24.17;11.75;;;14.80;99.90;;;;;;5099953;28;20036;-83
2022/03/25 10:52:25;;;;;;;23.05;11.45;;;14.80;99.90;;;;;;5116784;27;20476;-83
2022/03/25 10:55:11;;;;;;;23.27;12.65;;;14.90;93.50;;;;;;5116704;27;20055;-83
2022/03/25 10:57:54;;;;;;;24.42;11.73;;;15.10;95.50;;;;;;5115922;28;20039;-83
2022/03/25 11:00:21;;;;;;;18.83;11.82;;;15.30;91.40;;;;;;5117181;28;20043;-84
2022/03/25 11:02:47;;;;;;;25.75;13.60;;;15.40;96.30;;;;;;5116223;28;20481;-84
2022/03/25 11:05:14;;;;;;;23.13;12.25;;;15.70;97.30;;;;;;5133863;28;20054;-84
2022/03/25 11:07:45;;;;;;;19.98;10.93;;;15.50;95.40;;;;;;5134821;28;20055;-85
2022/03/25 11:10:17;;;;;;;17.55;9.73;;;15.50;93.30;;;;;;5115927;28;20493;-84
2022/03/25 11:12:45;;;;;;;20.17;10.70;;;15.70;90.60;;;;;;5115843;28;20051;-84
2022/03/25 11:15:21;;;;;;;17.10;9.50;;;15.80;92.80;;;;;;5134600;28;20538;-84
2022/03/25 11:17:47;;;;;;;20.30;10.45;;;16.00;92.20;;;;;;5116313;28;20040;-84
2022/03/25 11:20:15;;;;;;;17.55;10.18;;;16.00;92.30;;;;;;5134747;28;20090;-84
2022/03/25 11:22:51;;;;;;;22.77;11.38;;;16.20;91.70;;;;;;5116179;28;20403;-84
2022/03/25 11:25:21;;;;;;;20.33;11.27;;;16.40;89.60;;;;;;5115651;28;20397;-83
2022/03/25 11:27:57;;;;;;;23.05;11.43;;;16.40;91.40;;;;;;5117792;27;20061;-84
2022/03/25 11:30:23;;;;;;;22.95;13.13;;;16.50;90.90;;;;;;5122050;27;20082;-84
2022/03/25 11:32:55;;;;;;;21.80;12.18;;;16.60;91.30;;;;;;5120187;27;20489;-84
2022/03/25 11:35:21;;;;;;;19.23;12.02;;;16.60;91.20;;;;;;5119863;27;20078;-84
2022/03/25 11:37:47;;;;;;;22.48;13.68;;;16.70;91.40;;;;;;5102571;27;20071;-84
2022/03/25 11:40:12;;;;;;;23.20;12.98;;;16.70;91.60;;;;;;5119789;27;20118;-84
2022/03/25 11:42:40;;;;;;;23.15;13.02;;;16.80;91.30;;;;;;5120173;27;20055;-84
2022/03/25 11:45:41;;;;;;;22.92;13.95;;;16.90;90.60;;;;;;5119666;27;20039;-84
2022/03/25 11:48:08;;;;;;;22.95;14.00;;;16.90;89.90;;;;;;5120722;27;20074;-84
2022/03/25 11:50:55;;;;;;;25.48;14.38;;;16.90;91.30;;;;;;5102979;27;20126;-84
2022/03/25 11:53:23;;;;;;;22.40;14.70;;;17.30;89.30;;;;;;5119729;27;20043;-84
2022/03/25 11:56:11;;;;;;;23.30;12.95;;;17.30;91.00;;;;;;5137961;27;20096;-84
2022/03/25 11:59:00;;;;;;;23.50;13.55;;;17.40;87.80;;;;;;5119846;27;20419;-84
2022/03/25 12:01:26;;;;;;;21.23;12.52;;;17.40;88.70;;;;;;5119397;27;20107;-83
2022/03/25 12:03:59;;;;;;;19.95;12.07;;;17.50;90.90;;;;;;5119617;27;20039;-85
2022/03/25 12:06:27;;;;;;;21.20;12.90;;;17.50;91.10;;;;;;5102242;27;20038;-85
2022/03/25 12:08:55;;;;;;;21.77;13.85;;;17.70;92.40;;;;;;5119702;27;20070;-83
2022/03/25 12:11:52;;;;;;;21.55;14.05;;;17.90;90.50;;;;;;5119745;27;20044;-85
2022/03/25 12:14:20;;;;;;;23.45;14.13;;;17.80;84.80;;;;;;5094977;27;20051;-84
2022/03/25 12:16:46;;;;;;;23.58;13.50;;;17.80;89.10;;;;;;5102242;27;20381;-83
2022/03/25 12:19:30;;;;;;;22.40;13.77;;;17.90;88.60;;;;;;5118858;27;20054;-84
2022/03/25 12:21:55;;;;;;;25.65;13.77;;;17.80;81.40;;;;;;5118854;27;20541;-84
2022/03/25 12:24:22;;;;;;;21.13;12.18;;;17.80;86.50;;;;;;5119882;27;20043;-85
2022/03/25 12:27:04;;;;;;;21.15;13.15;;;17.90;86.40;;;;;;5119123;27;20043;-84
2022/03/25 12:29:34;;;;;;;19.98;12.00;;;18.00;84.00;;;;;;5119125;27;20496;-85
2022/03/25 12:32:02;;;;;;;21.25;12.05;;;18.00;82.80;;;;;;5136467;27;20045;-85
2022/03/25 12:34:38;;;;;;;21.77;13.80;;;18.40;84.00;;;;;;5102351;27;20469;-84
2022/03/25 12:37:06;;;;;;;23.63;13.23;;;18.30;83.50;;;;;;5118744;27;20089;-85